Latest Coastal Weather Observations for Cape Willoughby

IDS60701

Issued at 8:51 pm CDT Friday 15 December 2017 (issued every 10 minutes, with the page automatically refreshed every 10 minutes)

About coastal observations | Map of coastal stations | Coastal observations for SA | Marine services | Other Formats
Station Details ID: 022803 Name: CAPE WILLOUGHBY Lat: -35.84 Lon: 138.13 Height: 55.0 m
Data from the previous 72 hours. | See also: Recent months at Cape Willoughby
Date/Time
CDT
Temp
°C
Wind Pressure Rain since
9am
mm
Weather Cloud Vis
km
Sea
Height
m
Swell
Dir  Spd
kts
Gust
kts
hPa Trend Height
m
Period
s
Dir
15/08:30pm 17.8 SSW 7 11 1012.9 - 0.0 - - - - - - -
15/08:00pm 17.9 SSW 8 11 1012.9 - 0.0 - - - - - - -
15/07:30pm 18.2 SSW 12 14 1012.7 - 0.0 - - - - - - -
15/07:00pm 18.8 SSW 9 13 1012.4 - 0.0 - - - - - - -
15/06:30pm 18.3 S 8 11 1012.2 - 0.0 - - - - - - -
15/06:00pm 19.4 SSW 8 12 1012.1 - 0.0 - - - - - - -
15/05:30pm 18.7 S 8 12 1012.1 - 0.0 - - - - - - -
15/05:00pm 18.6 S 10 12 1012.2 - 0.0 - - - - - - -
15/04:30pm 18.5 S 10 12 1012.2 - 0.0 - - - - - - -
15/04:00pm 20.3 N 6 9 1012.0 - 0.0 - - - - - - -
15/03:30pm 21.8 N 10 12 1011.9 - 0.0 - - - - - - -
15/03:00pm 22.5 N 13 16 1012.1 - 0.0 - - - - - - -
15/02:30pm 22.5 N 14 16 1012.3 - 0.0 - - - - - - -
15/02:00pm 22.7 N 13 15 1012.5 - 0.0 - - - - - - -
15/01:30pm 21.7 N 13 15 1012.8 - 0.0 - - - - - - -
15/01:00pm 21.7 N 11 14 1013.2 - 0.0 - - - - - - -
15/12:30pm 19.6 N 8 10 1013.4 - 0.0 - - - - - - -
15/12:00pm 19.0 N 7 9 1013.7 - 0.0 - - - - - - -
15/11:30am 19.5 N 8 10 1013.7 - 0.0 - - - - - - -
15/11:00am 18.3 N 7 9 1013.7 - 0.0 - - - - - - -
15/10:30am 18.5 NNE 6 8 1013.9 - 0.0 - - - - - - -
15/10:00am 18.6 NNE 5 7 1014.0 - 0.0 - - - - - - -
15/09:30am 19.0 ENE 4 5 1014.1 - 0.0 - - - - - - -
15/09:00am 17.4 E 2 3 1014.2 - 0.0 - - - - - - -
15/08:30am 18.3 E 3 5 1014.1 - 0.0 - - - - - - -
15/08:00am 17.6 S 3 3 1014.1 - 0.0 - - - - - - -
15/07:30am 17.1 SSE 2 3 1014.0 - 0.0 - - - - - - -
15/07:00am 16.1 S 1 2 1013.8 - 0.0 - - - - - - -
15/06:30am 15.8 S 3 5 1013.7 - 0.0 - - - - - - -
15/06:00am 15.4 SSW 3 4 1013.4 - 0.0 - - - - - - -
15/05:30am 15.5 SSW 3 4 1013.1 - 0.0 - - - - - - -
15/05:00am 15.7 S 3 5 1012.9 - 0.0 - - - - - - -
15/04:30am 15.9 S 4 7 1012.7 - 0.0 - - - - - - -
15/04:00am 15.9 S 6 8 1012.7 - 0.0 - - - - - - -
15/03:30am 15.9 S 7 9 1012.8 - 0.0 - - - - - - -
15/03:00am 15.9 SSE 9 11 1012.9 - 0.0 - - - - - - -
15/02:30am 16.0 S 9 11 1013.1 - 0.0 - - - - - - -
15/02:00am 16.1 S 11 13 1013.3 - 0.0 - - - - - - -
15/01:30am 16.2 S 10 14 1013.5 - 0.0 - - - - - - -
15/01:00am 16.3 S 8 10 1013.9 - 0.0 - - - - - - -
15/12:30am 16.3 S 8 10 1014.0 - 0.0 - - - - - - -
15/12:00am 16.4 S 9 10 1014.1 - 0.0 - - - - - - -
 
Date/Time
CDT
Temp
°C
Wind Pressure Rain since
9am
mm
Weather Cloud Vis
km
Sea
Height
m
Swell
Dir  Spd
kts
Gust
kts
hPa Trend Height
m
Period
s
Dir
14/11:30pm 16.4 S 10 12 1014.2 - 0.0 - - - - - - -
14/11:00pm 16.5 S 10 13 1014.3 - 0.0 - - - - - - -
14/10:30pm 16.4 S 11 14 1014.3 - 0.0 - - - - - - -
14/10:00pm 16.4 S 9 11 1014.2 - 0.0 - - - - - - -
14/09:30pm 16.5 S 10 13 1014.1 - 0.0 - - - - - - -
14/09:00pm 16.6 S 10 12 1014.1 - 0.0 - - - - - - -
14/08:30pm 16.7 S 9 11 1013.9 - 0.0 - - - - - - -
14/08:00pm 16.7 S 9 13 1013.5 - 0.0 - - - - - - -
14/07:30pm 16.9 S 10 13 1013.3 - 0.0 - - - - - - -
14/07:00pm 17.1 S 10 13 1012.9 - 0.0 - - - - - - -
14/06:30pm 17.4 S 10 14 1012.6 - 0.0 - - - - - - -
14/06:00pm 17.6 S 10 13 1012.6 - 0.0 - - - - - - -
14/05:30pm 17.9 S 11 14 1012.5 - 0.0 - - - - - - -
14/05:00pm 17.7 S 12 16 1012.5 - 0.0 - - - - - - -
14/04:30pm 18.1 S 9 13 1012.7 - 0.0 - - - - - - -
14/04:00pm 18.4 S 10 15 1012.7 - 0.0 - - - - - - -
14/03:30pm 18.4 S 11 14 1012.5 - 0.0 - - - - - - -
14/03:00pm 19.1 S 11 14 1012.2 - 0.0 - - - - - - -
14/02:30pm 18.4 S 11 13 1012.3 - 0.0 - - - - - - -
14/02:00pm 18.3 S 9 12 1012.4 - 0.0 - - - - - - -
14/01:30pm 18.4 S 8 11 1012.7 - 0.0 - - - - - - -
14/01:00pm 19.0 S 7 9 1012.8 - 0.0 - - - - - - -
14/12:30pm 18.5 S 6 8 1012.8 - 0.0 - - - - - - -
14/12:00pm 17.9 S 7 9 1012.6 - 0.0 - - - - - - -
14/11:30am 17.8 S 8 11 1012.6 - 0.0 - - - - - - -
14/11:00am 17.7 S 9 13 1012.5 - 0.0 - - - - - - -
14/10:30am 17.5 S 8 13 1012.5 - 0.0 - - - - - - -
14/10:00am 17.4 S 10 14 1012.4 - 0.0 - - - - - - -
14/09:30am 17.3 S 9 15 1012.0 - 0.0 - - - - - - -
14/09:00am 17.0 SSW 10 15 1011.4 - 0.0 - - - - - - -
14/08:30am 16.9 SSW 15 21 1011.0 - 0.0 - - - - - - -
14/08:00am 16.6 SSW 15 20 1010.9 - 0.0 - - - - - - -
14/07:30am 16.8 SW 10 13 1010.5 - 0.0 - - - - - - -
14/07:00am 16.6 SW 10 14 1010.0 - 0.0 - - - - - - -
14/06:30am 16.4 SW 14 18 1009.4 - 0.0 - - - - - - -
14/06:00am 16.2 SW 11 14 1009.0 - 0.0 - - - - - - -
14/05:30am 15.9 SSW 14 18 1008.6 - 0.0 - - - - - - -
14/05:00am 16.2 SSW 15 19 1007.9 - 0.0 - - - - - - -
14/04:30am 16.4 SSW 16 22 1007.6 - 0.0 - - - - - - -
14/04:00am 17.1 SSW 16 21 1007.1 - 0.0 - - - - - - -
14/03:30am 17.0 SSW 16 21 1006.9 - 0.0 - - - - - - -
14/03:00am 17.4 SSW 15 20 1006.7 - 0.0 - - - - - - -
14/02:30am 17.5 SSW 18 24 1006.7 - 0.0 - - - - - - -
14/02:00am 17.4 SSW 19 23 1007.0 - 0.0 - - - - - - -
14/01:30am 17.4 SSW 16 20 1007.2 - 0.0 - - - - - - -
14/01:00am 17.6 SSW 17 23 1007.4 - 0.0 - - - - - - -
14/12:30am 17.6 SW 19 23 1007.2 - 0.0 - - - - - - -
14/12:00am 17.6 SW 19 23 1007.3 - 0.0 - - - - - - -
 
Date/Time
CDT
Temp
°C
Wind Pressure Rain since
9am
mm
Weather Cloud Vis
km
Sea
Height
m
Swell
Dir  Spd
kts
Gust
kts
hPa Trend Height
m
Period
s
Dir
13/11:30pm 17.8 SW 15 19 1007.2 - 0.0 - - - - - - -
13/11:00pm 17.9 WSW 13 17 1007.2 - 0.0 - - - - - - -
13/10:30pm 18.1 SW 17 21 1006.9 - 0.0 - - - - - - -
13/10:00pm 18.4 SW 14 17 1007.1 - 0.0 - - - - - - -
13/09:30pm 18.7 SW 13 16 1007.1 - 0.0 - - - - - - -
13/09:00pm 19.1 SW 15 17 1006.7 - 0.0 - - - - - - -
13/08:30pm 19.9 SW 11 15 1006.4 - 0.0 - - - - - - -
13/08:00pm 20.4 SW 9 11 1006.1 - 0.0 - - - - - - -
13/07:30pm 20.7 SSW 11 14 1005.8 - 0.0 - - - - - - -
13/07:00pm 22.0 SSW 5 11 1005.3 - 0.0 - - - - - - -
13/06:30pm 22.6 NNE 3 5 1004.6 - 0.0 - - - - - - -
13/06:00pm 22.1 WSW 5 8 1004.4 - 0.0 - - - - - - -
13/05:30pm 22.7 SW 11 14 1004.0 - 0.0 - - - - - - -
13/05:00pm 21.9 SW 10 15 1003.5 - 0.0 - - - - - - -
13/04:30pm 23.0 SW 8 11 1004.4 - 0.0 - - - - - - -
13/04:00pm 24.6 SW 7 10 1003.6 - 0.0 - - - - - - -
13/03:30pm 23.6 SW 9 12 1004.0 - 0.0 - - - - - - -
13/03:00pm 24.8 SW 11 16 1003.1 - 0.0 - - - - - - -
13/02:30pm 22.8 SW 9 12 1003.6 - 0.0 - - - - - - -
13/02:00pm 24.4 SW 15 18 1003.8 - 0.0 - - - - - - -
13/01:30pm 27.6 W 13 22 1003.9 - 0.0 - - - - - - -
13/01:00pm 30.7 NW 11 19 1003.8 - 0.0 - - - - - - -
13/12:30pm 27.5 NNW 12 16 1003.5 - 0.0 - - - - - - -
13/12:00pm 28.3 NNW 16 19 1003.3 - 0.0 - - - - - - -
13/11:30am 28.0 NNW 15 19 1003.5 - 0.0 - - - - - - -
13/11:00am 27.1 NNW 14 16 1004.2 - 0.0 - - - - - - -
13/10:30am 26.3 NW 15 18 1004.2 - 0.0 - - - - - - -
13/10:00am 25.9 NW 20 26 1003.9 - 0.0 - - - - - - -
13/09:56am 25.9 NW 21 28 1003.9 - 0.0 - - - - - - -
13/09:30am 27.3 NNW 30 38 1003.2 - 0.0 - - - - - - -
13/09:05am 28.2 NNW 23 35 1003.5 - 0.0 - - - - - - -
13/09:00am 29.1 NNW 22 29 1003.6 - 0.0 - - - - - - -
13/08:30am 28.1 NNW 21 25 1003.5 - 0.0 - - - - - - -
13/08:00am 29.5 NNW 24 30 1003.3 - 0.0 - - - - - - -
13/07:30am 27.8 NNW 25 28 1003.1 - 0.0 - - - - - - -
13/07:00am 26.6 NNW 20 25 1003.1 - 0.0 - - - - - - -
13/06:30am 26.1 NNW 14 19 1003.3 - 0.0 - - - - - - -
13/06:00am 25.4 NNW 12 14 1003.5 - 0.0 - - - - - - -
13/05:30am 23.5 NNE 7 10 1003.6 - 0.0 - - - - - - -
13/05:00am 24.4 NNE 13 20 1003.5 - 0.0 - - - - - - -
13/04:30am 23.9 NNE 10 14 1004.0 - 0.0 - - - - - - -
13/04:08am 24.9 NNE 13 23 1004.1 - 0.0 - - - - - - -
13/04:00am 23.0 NNW 5 11 1004.4 - 0.0 - - - - - - -
13/03:30am 24.1 NNE 8 16 1004.8 - 0.0 - - - - - - -
13/03:00am 22.9 NNE 10 13 1005.3 - 0.0 - - - - - - -
13/02:30am 23.2 NNE 11 15 1005.9 - 0.0 - - - - - - -
13/02:00am 22.4 N 8 11 1006.6 - 0.0 - - - - - - -
13/01:30am 22.4 N 7 8 1007.3 - 0.0 - - - - - - -
13/01:00am 22.3 N 6 7 1008.1 - 0.0 - - - - - - -
13/12:30am 22.8 NNE 7 9 1008.6 - 0.0 - - - - - - -
13/12:00am 22.2 NE 7 9 1009.0 - 0.0 - - - - - - -
 
Date/Time
CDT
Temp
°C
Wind Pressure Rain since
9am
mm
Weather Cloud Vis
km
Sea
Height
m
Swell
Dir  Spd
kts
Gust
kts
hPa Trend Height
m
Period
s
Dir
12/11:30pm 22.3 NE 8 12 1009.2 - 0.0 - - - - - - -
12/11:00pm 20.7 NE 6 8 1009.5 - 0.0 - - - - - - -
12/10:30pm 22.3 NE 5 8 1009.8 - 0.0 - - - - - - -
12/10:00pm 21.4 ENE 4 7 1009.9 - 0.0 - - - - - - -
12/09:30pm 20.8 E 3 5 1010.1 - 0.0 - - - - - - -
12/09:00pm 20.5 S 5 6 1009.9 - 0.0 - - - - - - -

Other Formats:

Comma delimited format used in spreadsheet applications
http://www.bom.gov.au/fwo/IDS60701/IDS60701.94822.axf

JavaScript Object Notation format (JSON) in row-major order
http://www.bom.gov.au/fwo/IDS60701/IDS60701.94822.json